createdAt,value
2023-03-29T00:01:35.220Z,100736.19
2023-03-29T00:06:42.334Z,100761.69
2023-03-29T00:11:45.416Z,100781.31
2023-03-29T00:16:49.924Z,100776.06
2023-03-29T00:21:52.554Z,100812.34
2023-03-29T00:26:55.159Z,100808.72
2023-03-29T00:31:57.699Z,100820.53
2023-03-29T00:37:00.450Z,100808.81
2023-03-29T00:42:03.246Z,100814.78
2023-03-29T00:47:09.163Z,100805.25
2023-03-29T00:52:14.377Z,100812.22
2023-03-29T00:57:19.370Z,100803.41
2023-03-29T01:02:26.419Z,100804.28
2023-03-29T01:07:38.877Z,100753.47
2023-03-29T01:12:50.554Z,100801.47
2023-03-29T01:17:55.815Z,100795.16
2023-03-29T01:23:07.694Z,100797.88
2023-03-29T01:28:23.047Z,100768.16
2023-03-29T01:33:32.546Z,100729.13
2023-03-29T01:38:39.840Z,100744.75
2023-03-29T01:43:57.134Z,100770.44
2023-03-29T01:49:32.780Z,100761.91
2023-03-29T01:54:48.618Z,100793.38
2023-03-29T01:59:53.804Z,100769.22
2023-03-29T02:04:59.894Z,100788.94
2023-03-29T02:10:12.282Z,100779.16
2023-03-29T02:15:21.278Z,100783.88
2023-03-29T02:20:30.845Z,100727.09
2023-03-29T02:25:37.595Z,100765.97
2023-03-29T02:31:00.143Z,100768.31
2023-03-29T02:36:11.870Z,100703.88
2023-03-29T02:41:17.134Z,100769.28
2023-03-29T02:46:21.220Z,100769.09
2023-03-29T02:51:29.554Z,100765.34
2023-03-29T02:56:51.597Z,100748.31
2023-03-29T03:01:55.422Z,100760.91
2023-03-29T03:06:58.947Z,100729.44
2023-03-29T03:12:02.149Z,100725.53
2023-03-29T03:17:05.048Z,100713.28
2023-03-29T03:22:15.832Z,100767.50
2023-03-29T03:27:19.334Z,100765.00
2023-03-29T03:32:24.294Z,100731.03
2023-03-29T03:37:28.101Z,100763.69
2023-03-29T03:42:31.321Z,100725.41
2023-03-29T03:47:38.285Z,100759.44
2023-03-29T03:53:02.817Z,100712.78
2023-03-29T03:58:25.506Z,100734.78
2023-03-29T04:03:29.567Z,100729.28
2023-03-29T04:08:37.053Z,100672.97
2023-03-29T04:13:46.949Z,100706.75
2023-03-29T04:19:04.530Z,100694.56
2023-03-29T04:24:08.581Z,100651.69
2023-03-29T04:29:14.540Z,100726.63
2023-03-29T04:34:23.747Z,100735.41
2023-03-29T04:39:34.263Z,100697.50
2023-03-29T04:44:43.007Z,100692.97
2023-03-29T04:49:49.308Z,100691.50
2023-03-29T04:55:07.477Z,100753.97
2023-03-29T05:00:33.149Z,100714.00
2023-03-29T05:06:12.358Z,100721.75
2023-03-29T05:11:17.666Z,100749.53
2023-03-29T05:16:24.796Z,100731.94
2023-03-29T05:21:31.879Z,100683.84
2023-03-29T05:26:40.734Z,100711.59
2023-03-29T05:31:45.332Z,100695.16
2023-03-29T05:36:49.299Z,100704.50
2023-03-29T05:41:51.979Z,100696.34
2023-03-29T05:47:14.679Z,100690.28
2023-03-29T05:52:17.281Z,100709.81
2023-03-29T05:57:22.975Z,100703.56
2023-03-29T06:02:28.806Z,100683.78
2023-03-29T06:07:32.310Z,100711.50
2023-03-29T06:12:54.809Z,100699.34
2023-03-29T06:18:01.401Z,100686.53
2023-03-29T06:23:05.718Z,100664.38
2023-03-29T06:28:09.138Z,100685.41
2023-03-29T06:33:14.542Z,100681.94
2023-03-29T06:38:29.395Z,100696.31
2023-03-29T06:43:51.155Z,100632.78
2023-03-29T06:50:21.579Z,100696.69
2023-03-29T06:56:09.637Z,100698.97
2023-03-29T07:02:16.875Z,100700.59
2023-03-29T07:08:08.574Z,100696.97
2023-03-29T07:13:22.684Z,100658.41
2023-03-29T07:18:57.670Z,100700.69
2023-03-29T07:24:21.920Z,100642.16
2023-03-29T07:29:25.625Z,100625.19
2023-03-29T07:34:30.303Z,100664.03
2023-03-29T07:39:34.446Z,100664.69
2023-03-29T07:45:47.683Z,100676.59
2023-03-29T07:50:52.102Z,100670.41
2023-03-29T07:56:01.456Z,100615.31
2023-03-29T08:01:25.074Z,100633.81
2023-03-29T08:06:46.405Z,100606.78
2023-03-29T08:11:50.330Z,100663.00
2023-03-29T08:17:00.389Z,100557.97
2023-03-29T08:22:05.018Z,100656.94
2023-03-29T08:27:34.238Z,100515.94
2023-03-29T08:32:39.493Z,100633.53
2023-03-29T08:37:49.798Z,100590.38
2023-03-29T08:43:19.716Z,100627.97
2023-03-29T08:49:32.326Z,100604.34
2023-03-29T09:01:54.416Z,100555.09
2023-03-29T09:06:59.758Z,100527.69
2023-03-29T09:12:17.607Z,100589.06
2023-03-29T09:17:39.576Z,100588.50
2023-03-29T09:23:09.220Z,100586.91
2023-03-29T09:29:08.317Z,100543.78
2023-03-29T09:34:43.832Z,100556.66
2023-03-29T09:39:57.946Z,100557.22
2023-03-29T09:45:17.688Z,100554.84
2023-03-29T09:50:32.373Z,100506.56
2023-03-29T09:55:44.538Z,100546.81
2023-03-29T10:01:01.389Z,100547.13
2023-03-29T10:06:10.340Z,100552.50
2023-03-29T10:11:31.259Z,100567.47
2023-03-29T10:16:41.213Z,100576.84
2023-03-29T10:21:53.328Z,100575.47
2023-03-29T10:27:03.963Z,100552.72
2023-03-29T10:32:35.967Z,100561.31
2023-03-29T10:37:52.672Z,100563.47
2023-03-29T10:43:02.624Z,100548.72
2023-03-29T10:48:13.195Z,100567.75
2023-03-29T10:53:20.408Z,100535.31
2023-03-29T10:58:39.505Z,100547.38
2023-03-29T11:04:26.384Z,100553.56
2023-03-29T11:09:45.186Z,100549.28
2023-03-29T11:15:28.451Z,100548.72
2023-03-29T11:20:43.095Z,100538.25
2023-03-29T11:26:05.840Z,100538.78
2023-03-29T11:31:26.371Z,100535.81
2023-03-29T11:36:45.866Z,100506.03
2023-03-29T11:41:54.298Z,100509.78
2023-03-29T11:47:09.043Z,100498.53
2023-03-29T11:52:26.967Z,100524.22
2023-03-29T11:57:54.923Z,100490.53
2023-03-29T12:03:11.870Z,100550.22
2023-03-29T12:08:36.366Z,100545.09
2023-03-29T12:14:28.076Z,100531.88
2023-03-29T12:19:43.865Z,100491.16
2023-03-29T12:24:52.180Z,100494.91
2023-03-29T12:30:22.352Z,100513.91
2023-03-29T12:35:39.503Z,100508.31
2023-03-29T12:41:11.687Z,100486.13
2023-03-29T12:46:45.650Z,100510.50
2023-03-29T12:51:49.500Z,100495.75
2023-03-29T12:56:53.269Z,100496.00
2023-03-29T13:02:06.297Z,100439.75
2023-03-29T13:07:48.024Z,100504.03
2023-03-29T13:12:51.215Z,100491.94
2023-03-29T13:18:15.343Z,100501.03
2023-03-29T13:23:32.684Z,100501.59
2023-03-29T13:28:44.265Z,100489.03
2023-03-29T13:33:58.841Z,100500.34
2023-03-29T13:39:08.304Z,100519.91
2023-03-29T13:44:30.771Z,100516.69
2023-03-29T13:49:35.635Z,100497.44
2023-03-29T13:54:58.048Z,100535.53
2023-03-29T14:00:26.212Z,100509.81
2023-03-29T14:05:43.366Z,100522.44
2023-03-29T14:10:48.004Z,100487.59
2023-03-29T14:16:12.766Z,100534.00
2023-03-29T14:21:16.577Z,100538.56
2023-03-29T14:26:24.563Z,100529.97
2023-03-29T14:31:33.127Z,100555.44
2023-03-29T14:36:36.868Z,100528.59
2023-03-29T14:41:49.976Z,100559.97
2023-03-29T14:46:54.347Z,100567.75
2023-03-29T14:51:57.649Z,100570.94
2023-03-29T14:57:07.627Z,100568.78
2023-03-29T15:02:27.499Z,100551.03
2023-03-29T15:07:31.072Z,100566.59
2023-03-29T15:12:34.453Z,100562.00
2023-03-29T15:17:51.146Z,100549.88
2023-03-29T15:23:02.746Z,100571.31
2023-03-29T15:28:05.834Z,100570.50
2023-03-29T15:33:24.530Z,100554.69
2023-03-29T15:38:40.500Z,100563.00
2023-03-29T15:43:47.192Z,100546.09
2023-03-29T15:48:49.667Z,100549.25
2023-03-29T15:53:52.247Z,100540.63
2023-03-29T15:58:54.760Z,100521.75
2023-03-29T16:03:58.193Z,100560.09
2023-03-29T16:09:00.812Z,100553.91
2023-03-29T16:14:06.999Z,100563.81
2023-03-29T16:19:09.372Z,100558.91
2023-03-29T16:24:18.203Z,100546.84
2023-03-29T16:29:21.184Z,100549.75
2023-03-29T16:34:24.457Z,100548.38
2023-03-29T16:39:27.946Z,100587.59
2023-03-29T16:44:30.274Z,100593.78
2023-03-29T16:49:32.753Z,100566.69
2023-03-29T16:54:35.262Z,100597.72
2023-03-29T16:59:37.735Z,100587.72
2023-03-29T17:04:40.233Z,100601.41
2023-03-29T17:09:42.901Z,100577.72
2023-03-29T17:14:45.460Z,100551.69
2023-03-29T17:19:48.019Z,100581.25
2023-03-29T17:24:50.699Z,100559.44
2023-03-29T17:29:53.455Z,100542.53
2023-03-29T17:34:56.175Z,100550.22
2023-03-29T17:39:58.597Z,100531.06
2023-03-29T17:45:01.301Z,100521.06
2023-03-29T17:50:07.085Z,100535.22
2023-03-29T17:55:13.536Z,100528.63
2023-03-29T18:00:16.711Z,100530.94
2023-03-29T18:05:19.110Z,100540.31
2023-03-29T18:10:21.665Z,100525.00
2023-03-29T18:15:24.302Z,100539.31
2023-03-29T18:20:26.669Z,100510.81
2023-03-29T18:25:29.666Z,100519.16
2023-03-29T18:30:32.781Z,100516.44
2023-03-29T18:35:35.289Z,100501.28
2023-03-29T18:40:39.558Z,100495.94
2023-03-29T18:45:43.861Z,100489.16
2023-03-29T18:50:47.222Z,100498.84
2023-03-29T18:55:49.592Z,100503.94
2023-03-29T19:00:52.592Z,100467.16
2023-03-29T19:05:55.925Z,100483.94
2023-03-29T19:11:04.492Z,100457.63
2023-03-29T19:16:07.741Z,100476.66
2023-03-29T19:21:12.235Z,100486.09
2023-03-29T19:26:15.635Z,100465.19
2023-03-29T19:31:18.230Z,100478.28
2023-03-29T19:36:21.871Z,100463.31
2023-03-29T19:41:24.321Z,100446.13
2023-03-29T19:46:28.550Z,100475.56
2023-03-29T19:51:31.032Z,100457.78
2023-03-29T19:56:35.093Z,100478.31
2023-03-29T20:01:40.912Z,100449.19
2023-03-29T20:06:45.920Z,100479.53
2023-03-29T20:11:48.813Z,100482.19
2023-03-29T20:16:53.188Z,100474.38
2023-03-29T20:21:57.794Z,100469.00
2023-03-29T20:27:00.169Z,100448.66
2023-03-29T20:32:04.282Z,100438.00
2023-03-29T20:37:07.894Z,100463.63
2023-03-29T20:42:10.467Z,100454.69
2023-03-29T20:47:14.354Z,100456.72
2023-03-29T20:52:17.444Z,100457.13
2023-03-29T20:57:21.190Z,100449.00
2023-03-29T21:02:24.314Z,100465.75
2023-03-29T21:07:29.410Z,100460.09
2023-03-29T21:12:32.428Z,100438.41
2023-03-29T21:17:36.481Z,100438.91
2023-03-29T21:22:40.256Z,100448.56
2023-03-29T21:27:44.309Z,100460.09
2023-03-29T21:32:47.318Z,100448.75
2023-03-29T21:37:50.192Z,100432.63
2023-03-29T21:42:53.509Z,100458.03
2023-03-29T21:47:57.192Z,100433.66
2023-03-29T21:52:59.570Z,100439.56
2023-03-29T21:58:03.849Z,100429.72
2023-03-29T22:03:06.520Z,100427.91
2023-03-29T22:08:11.986Z,100423.88
2023-03-29T22:13:14.425Z,100421.47
2023-03-29T22:18:16.997Z,100415.56
2023-03-29T22:23:20.273Z,100382.75
2023-03-29T22:28:22.696Z,100371.47
2023-03-29T22:33:27.124Z,100384.91
2023-03-29T22:38:31.328Z,100363.06
2023-03-29T22:43:37.871Z,100343.41
2023-03-29T22:48:40.893Z,100401.09
2023-03-29T22:53:44.130Z,100390.13
2023-03-29T22:58:47.371Z,100387.47
2023-03-29T23:03:49.873Z,100391.97
2023-03-29T23:08:52.290Z,100386.78
2023-03-29T23:13:55.355Z,100375.00
2023-03-29T23:18:58.613Z,100386.16
2023-03-29T23:24:00.987Z,100384.53
2023-03-29T23:29:04.417Z,100381.22
2023-03-29T23:34:07.092Z,100379.28
2023-03-29T23:39:10.314Z,100395.31
2023-03-29T23:44:12.824Z,100360.00
2023-03-29T23:49:17.491Z,100382.19
2023-03-29T23:54:19.917Z,100372.78
2023-03-29T23:59:27.172Z,100366.28
